Terminal Aerodrome Forecast
Issued by NWS Louisville, KY

Home | Current Version | Previous Version | Text Only | Print | Product List | Glossary On
Versions: 1 2 3 4 5 6 7 8 9 10 11 12 13 14 15 16 17 18
059
FTUS43 KLMK 060809 AAA
TAFBWG
TAF AMD
KBWG 060809Z 0608/0706 09005KT 5SM -RA BR OVC004
      TEMPO 0608/0612 OVC006
     FM061300 30006KT 3SM RA BR OVC004
     FM061800 27008KT 5SM BR OVC010
     FM062100 28008KT P6SM OVC015=

USA.gov is the U.S. government's official web portal to all federal, state and local government web resources and services.